Portada
METAR-TAF:

METAR-TAF

Aeropuertos :

Aeropuerto de León

León, España

latitud: 42-35N, longitud: 005-39W, altitud: 926 m

Observación

El informe se hizo hace 27 minutos, a las 09:00 UTC
Viento 4 kt del este-noreste, variando entre norte-noreste y este
Temperatura 9°C
Humedad 93%
Presión 1017 hPa
Visibilidad 10 km o más
Cielo nuboso a una altura de 1700 ft

METAR: LELN 170900Z 07004KT 030V100 9999 BKN017 09/08 Q1017

Hora: 10:27 (09:27 UTC)

Pronóstico

El informe se hizo hace 1 hora y 27 minutos, a las 08:00 UTC
Pronóstico válido del 17 a las 09 UTC al 17 a las 18 UTC
Viento 6 kt del noreste
Visibilidad 10 km o más
Cielo nuboso a una altura de 1600 ft
Probabilidad 40% :
Temporalmente
del 17 a las 09 UTC al 17 a las 12 UTC
Visibilidad: 3000 m
Cielo nuboso a una altura de 1000 ft
neblina

TAF: LELN 170800Z 1709/1718 04006KT 9999 BKN016 PROB40 TEMPO 1709/1712 3000 BR BKN010

Observaciones y pronósticos meteorológicos de más de 4000 aeropuertos (mensajes METAR y TAF).

Los puntos amarillos y rojos representan las estaciones disponibles.

Ponga el ratón en el punto deseado para ver el nombre de la estación.

Haga clic para ver las observaciones y los pronósticos meteorológicos.

Para cambiar el mapa : haga clic en los botones verdes con una cruz de color negro para hacer un zoom, en el botón verde con un guión para alejar o en las flechas verdes para mapas adyacentes.


METAR-TAF: